sensor_id;sensor_type;location;lat;lon;timestamp;P1;durP1;ratioP1;P2;durP2;ratioP2
68438;SDS011;55421;51.600;5.718;2023-07-29T00:00:01;2.90;;;2.70;;
68438;SDS011;55421;51.600;5.718;2023-07-29T00:02:27;3.80;;;2.80;;
68438;SDS011;55421;51.600;5.718;2023-07-29T00:04:57;3.80;;;2.60;;
68438;SDS011;55421;51.600;5.718;2023-07-29T00:07:23;5.60;;;2.60;;
68438;SDS011;55421;51.600;5.718;2023-07-29T00:09:49;3.30;;;2.40;;
68438;SDS011;55421;51.600;5.718;2023-07-29T00:12:16;2.90;;;2.60;;
68438;SDS011;55421;51.600;5.718;2023-07-29T00:14:42;3.50;;;2.40;;
68438;SDS011;55421;51.600;5.718;2023-07-29T00:17:09;4.20;;;2.60;;
68438;SDS011;55421;51.600;5.718;2023-07-29T00:19:35;6.70;;;2.30;;
68438;SDS011;55421;51.600;5.718;2023-07-29T00:22:02;4.30;;;2.50;;
68438;SDS011;55421;51.600;5.718;2023-07-29T00:24:30;4.00;;;2.70;;
68438;SDS011;55421;51.600;5.718;2023-07-29T00:26:56;2.80;;;2.60;;
68438;SDS011;55421;51.600;5.718;2023-07-29T00:29:23;5.30;;;2.80;;
68438;SDS011;55421;51.600;5.718;2023-07-29T00:31:49;6.30;;;2.80;;
68438;SDS011;55421;51.600;5.718;2023-07-29T00:34:16;6.70;;;3.20;;
68438;SDS011;55421;51.600;5.718;2023-07-29T00:36:45;4.80;;;2.60;;
68438;SDS011;55421;51.600;5.718;2023-07-29T00:39:12;10.90;;;3.40;;
68438;SDS011;55421;51.600;5.718;2023-07-29T00:41:39;3.70;;;2.70;;
68438;SDS011;55421;51.600;5.718;2023-07-29T00:44:06;5.50;;;3.50;;
68438;SDS011;55421;51.600;5.718;2023-07-29T00:46:34;3.80;;;3.10;;
68438;SDS011;55421;51.600;5.718;2023-07-29T00:49:02;5.10;;;3.20;;
68438;SDS011;55421;51.600;5.718;2023-07-29T00:51:28;5.70;;;3.30;;
68438;SDS011;55421;51.600;5.718;2023-07-29T00:53:55;3.40;;;3.10;;
68438;SDS011;55421;51.600;5.718;2023-07-29T00:56:21;3.10;;;2.90;;
68438;SDS011;55421;51.600;5.718;2023-07-29T00:58:48;4.00;;;3.20;;
68438;SDS011;55421;51.600;5.718;2023-07-29T01:01:16;4.40;;;3.30;;
68438;SDS011;55421;51.600;5.718;2023-07-29T01:03:43;3.50;;;3.00;;
68438;SDS011;55421;51.600;5.718;2023-07-29T01:06:51;4.40;;;3.20;;
68438;SDS011;55421;51.600;5.718;2023-07-29T01:12:50;3.60;;;2.80;;
68438;SDS011;55421;51.600;5.718;2023-07-29T01:15:38;3.60;;;2.90;;
68438;SDS011;55421;51.600;5.718;2023-07-29T01:18:22;6.20;;;3.30;;
68438;SDS011;55421;51.600;5.718;2023-07-29T01:20:53;3.60;;;3.20;;
68438;SDS011;55421;51.600;5.718;2023-07-29T01:23:24;3.60;;;3.20;;
68438;SDS011;55421;51.600;5.718;2023-07-29T01:25:51;4.20;;;3.20;;
68438;SDS011;55421;51.600;5.718;2023-07-29T01:28:18;3.10;;;2.80;;
68438;SDS011;55421;51.600;5.718;2023-07-29T01:30:45;3.00;;;2.70;;
68438;SDS011;55421;51.600;5.718;2023-07-29T01:33:16;3.50;;;3.10;;
68438;SDS011;55421;51.600;5.718;2023-07-29T01:35:52;4.80;;;3.50;;
68438;SDS011;55421;51.600;5.718;2023-07-29T01:38:33;4.60;;;3.10;;
68438;SDS011;55421;51.600;5.718;2023-07-29T01:41:02;3.80;;;3.40;;
68438;SDS011;55421;51.600;5.718;2023-07-29T01:43:31;6.70;;;3.00;;
68438;SDS011;55421;51.600;5.718;2023-07-29T01:45:58;5.60;;;2.60;;
68438;SDS011;55421;51.600;5.718;2023-07-29T01:50:50;4.40;;;3.10;;
68438;SDS011;55421;51.600;5.718;2023-07-29T01:53:17;4.50;;;3.30;;
68438;SDS011;55421;51.600;5.718;2023-07-29T01:55:44;4.70;;;3.50;;
68438;SDS011;55421;51.600;5.718;2023-07-29T01:58:11;4.40;;;3.60;;
68438;SDS011;55421;51.600;5.718;2023-07-29T02:00:38;3.40;;;3.10;;
68438;SDS011;55421;51.600;5.718;2023-07-29T02:03:04;4.40;;;3.00;;
68438;SDS011;55421;51.600;5.718;2023-07-29T02:05:30;5.70;;;3.20;;
68438;SDS011;55421;51.600;5.718;2023-07-29T02:07:57;3.60;;;3.30;;
68438;SDS011;55421;51.600;5.718;2023-07-29T02:10:24;4.10;;;3.60;;
68438;SDS011;55421;51.600;5.718;2023-07-29T02:12:50;6.00;;;3.90;;
68438;SDS011;55421;51.600;5.718;2023-07-29T02:15:17;4.50;;;4.00;;
68438;SDS011;55421;51.600;5.718;2023-07-29T02:17:43;4.90;;;3.40;;
68438;SDS011;55421;51.600;5.718;2023-07-29T02:20:10;6.40;;;3.90;;
68438;SDS011;55421;51.600;5.718;2023-07-29T02:22:37;5.80;;;3.90;;
68438;SDS011;55421;51.600;5.718;2023-07-29T02:25:04;6.40;;;3.90;;
68438;SDS011;55421;51.600;5.718;2023-07-29T02:27:31;9.00;;;4.50;;
68438;SDS011;55421;51.600;5.718;2023-07-29T02:29:58;9.20;;;5.00;;
68438;SDS011;55421;51.600;5.718;2023-07-29T02:32:24;6.90;;;5.20;;
68438;SDS011;55421;51.600;5.718;2023-07-29T02:34:51;6.50;;;5.10;;
68438;SDS011;55421;51.600;5.718;2023-07-29T02:37:17;7.80;;;4.80;;
68438;SDS011;55421;51.600;5.718;2023-07-29T02:39:44;7.10;;;4.40;;
68438;SDS011;55421;51.600;5.718;2023-07-29T02:42:11;5.90;;;4.70;;
68438;SDS011;55421;51.600;5.718;2023-07-29T02:44:39;8.10;;;5.50;;
68438;SDS011;55421;51.600;5.718;2023-07-29T02:47:06;6.40;;;5.40;;
68438;SDS011;55421;51.600;5.718;2023-07-29T02:49:33;7.70;;;5.80;;
68438;SDS011;55421;51.600;5.718;2023-07-29T02:51:59;7.70;;;5.50;;
68438;SDS011;55421;51.600;5.718;2023-07-29T02:54:25;8.20;;;5.80;;
68438;SDS011;55421;51.600;5.718;2023-07-29T02:56:52;7.30;;;5.20;;
68438;SDS011;55421;51.600;5.718;2023-07-29T02:59:19;6.20;;;5.40;;
68438;SDS011;55421;51.600;5.718;2023-07-29T03:01:46;6.70;;;5.60;;
68438;SDS011;55421;51.600;5.718;2023-07-29T03:04:12;6.40;;;5.30;;
68438;SDS011;55421;51.600;5.718;2023-07-29T03:06:39;7.10;;;5.80;;
68438;SDS011;55421;51.600;5.718;2023-07-29T03:09:05;5.80;;;5.10;;
68438;SDS011;55421;51.600;5.718;2023-07-29T03:11:32;6.00;;;5.30;;
68438;SDS011;55421;51.600;5.718;2023-07-29T03:13:58;6.20;;;5.50;;
68438;SDS011;55421;51.600;5.718;2023-07-29T03:16:25;6.10;;;5.00;;
68438;SDS011;55421;51.600;5.718;2023-07-29T03:18:51;7.00;;;5.40;;
68438;SDS011;55421;51.600;5.718;2023-07-29T03:21:18;5.20;;;4.70;;
68438;SDS011;55421;51.600;5.718;2023-07-29T03:23:44;7.50;;;4.70;;
68438;SDS011;55421;51.600;5.718;2023-07-29T03:26:10;5.30;;;4.70;;
68438;SDS011;55421;51.600;5.718;2023-07-29T03:28:40;5.30;;;4.80;;
68438;SDS011;55421;51.600;5.718;2023-07-29T03:31:08;6.20;;;5.50;;
68438;SDS011;55421;51.600;5.718;2023-07-29T03:33:35;5.80;;;5.10;;
68438;SDS011;55421;51.600;5.718;2023-07-29T03:36:02;5.10;;;4.40;;
68438;SDS011;55421;51.600;5.718;2023-07-29T03:38:28;6.90;;;5.20;;
68438;SDS011;55421;51.600;5.718;2023-07-29T03:40:56;7.30;;;4.30;;
68438;SDS011;55421;51.600;5.718;2023-07-29T03:43:23;7.60;;;4.50;;
68438;SDS011;55421;51.600;5.718;2023-07-29T03:45:50;5.70;;;4.60;;
68438;SDS011;55421;51.600;5.718;2023-07-29T03:48:16;5.20;;;4.40;;
68438;SDS011;55421;51.600;5.718;2023-07-29T03:50:42;7.70;;;4.30;;
68438;SDS011;55421;51.600;5.718;2023-07-29T03:53:09;4.60;;;3.90;;
68438;SDS011;55421;51.600;5.718;2023-07-29T03:55:36;5.70;;;4.40;;
68438;SDS011;55421;51.600;5.718;2023-07-29T03:58:02;3.90;;;3.60;;
68438;SDS011;55421;51.600;5.718;2023-07-29T04:00:29;8.60;;;4.00;;
68438;SDS011;55421;51.600;5.718;2023-07-29T04:02:55;6.90;;;4.10;;
68438;SDS011;55421;51.600;5.718;2023-07-29T04:05:21;8.20;;;4.10;;
68438;SDS011;55421;51.600;5.718;2023-07-29T04:07:48;6.10;;;3.90;;
68438;SDS011;55421;51.600;5.718;2023-07-29T04:10:14;4.80;;;3.70;;
68438;SDS011;55421;51.600;5.718;2023-07-29T04:12:41;6.20;;;3.80;;
68438;SDS011;55421;51.600;5.718;2023-07-29T04:15:08;4.40;;;3.60;;
68438;SDS011;55421;51.600;5.718;2023-07-29T04:17:34;4.30;;;3.50;;
68438;SDS011;55421;51.600;5.718;2023-07-29T04:20:01;5.00;;;3.30;;
68438;SDS011;55421;51.600;5.718;2023-07-29T04:22:27;5.40;;;3.50;;
68438;SDS011;55421;51.600;5.718;2023-07-29T04:24:54;6.90;;;3.90;;
68438;SDS011;55421;51.600;5.718;2023-07-29T04:27:20;4.20;;;3.70;;
68438;SDS011;55421;51.600;5.718;2023-07-29T04:29:47;4.90;;;3.20;;
68438;SDS011;55421;51.600;5.718;2023-07-29T04:32:13;4.70;;;3.50;;
68438;SDS011;55421;51.600;5.718;2023-07-29T04:34:40;4.50;;;3.10;;
68438;SDS011;55421;51.600;5.718;2023-07-29T04:37:06;4.00;;;3.40;;
68438;SDS011;55421;51.600;5.718;2023-07-29T04:39:33;3.90;;;3.40;;
68438;SDS011;55421;51.600;5.718;2023-07-29T04:41:59;5.00;;;3.60;;
68438;SDS011;55421;51.600;5.718;2023-07-29T04:44:27;6.40;;;3.20;;
68438;SDS011;55421;51.600;5.718;2023-07-29T04:46:53;3.90;;;3.20;;
68438;SDS011;55421;51.600;5.718;2023-07-29T04:49:19;3.70;;;3.00;;
68438;SDS011;55421;51.600;5.718;2023-07-29T04:51:46;5.70;;;3.50;;
68438;SDS011;55421;51.600;5.718;2023-07-29T04:54:12;4.20;;;3.30;;
68438;SDS011;55421;51.600;5.718;2023-07-29T04:56:39;3.90;;;3.60;;
68438;SDS011;55421;51.600;5.718;2023-07-29T04:59:05;4.10;;;3.70;;
68438;SDS011;55421;51.600;5.718;2023-07-29T05:01:34;3.80;;;3.50;;
68438;SDS011;55421;51.600;5.718;2023-07-29T05:04:01;6.00;;;3.70;;
68438;SDS011;55421;51.600;5.718;2023-07-29T05:06:27;5.20;;;3.40;;
68438;SDS011;55421;51.600;5.718;2023-07-29T05:08:57;3.40;;;2.90;;
68438;SDS011;55421;51.600;5.718;2023-07-29T05:11:24;3.50;;;3.20;;
68438;SDS011;55421;51.600;5.718;2023-07-29T05:13:51;3.90;;;2.90;;
68438;SDS011;55421;51.600;5.718;2023-07-29T05:16:18;5.90;;;3.20;;
68438;SDS011;55421;51.600;5.718;2023-07-29T05:18:45;3.20;;;2.90;;
68438;SDS011;55421;51.600;5.718;2023-07-29T05:21:11;5.50;;;3.00;;
68438;SDS011;55421;51.600;5.718;2023-07-29T05:23:40;3.80;;;2.90;;
68438;SDS011;55421;51.600;5.718;2023-07-29T05:26:06;3.20;;;2.90;;
68438;SDS011;55421;51.600;5.718;2023-07-29T05:28:33;3.90;;;2.80;;
68438;SDS011;55421;51.600;5.718;2023-07-29T05:31:01;3.60;;;2.70;;
68438;SDS011;55421;51.600;5.718;2023-07-29T05:33:28;4.90;;;3.00;;
68438;SDS011;55421;51.600;5.718;2023-07-29T05:35:54;5.70;;;3.00;;
68438;SDS011;55421;51.600;5.718;2023-07-29T05:38:21;3.10;;;2.80;;
68438;SDS011;55421;51.600;5.718;2023-07-29T05:40:50;4.10;;;2.40;;
68438;SDS011;55421;51.600;5.718;2023-07-29T05:43:17;3.90;;;2.80;;
68438;SDS011;55421;51.600;5.718;2023-07-29T05:45:43;3.70;;;2.90;;
68438;SDS011;55421;51.600;5.718;2023-07-29T05:48:10;2.90;;;2.50;;
68438;SDS011;55421;51.600;5.718;2023-07-29T05:50:36;4.40;;;3.10;;
68438;SDS011;55421;51.600;5.718;2023-07-29T05:53:02;3.90;;;2.70;;
68438;SDS011;55421;51.600;5.718;2023-07-29T05:55:29;4.80;;;2.70;;
68438;SDS011;55421;51.600;5.718;2023-07-29T05:57:56;4.50;;;2.80;;
68438;SDS011;55421;51.600;5.718;2023-07-29T06:00:23;3.50;;;2.60;;
68438;SDS011;55421;51.600;5.718;2023-07-29T06:02:50;2.80;;;2.30;;
68438;SDS011;55421;51.600;5.718;2023-07-29T06:05:16;2.70;;;2.50;;
68438;SDS011;55421;51.600;5.718;2023-07-29T06:07:43;2.60;;;2.40;;
68438;SDS011;55421;51.600;5.718;2023-07-29T06:10:15;2.40;;;2.20;;
68438;SDS011;55421;51.600;5.718;2023-07-29T06:12:45;3.30;;;2.60;;
68438;SDS011;55421;51.600;5.718;2023-07-29T06:15:12;2.50;;;2.30;;
68438;SDS011;55421;51.600;5.718;2023-07-29T06:17:39;2.50;;;2.30;;
68438;SDS011;55421;51.600;5.718;2023-07-29T06:20:07;2.30;;;2.10;;
68438;SDS011;55421;51.600;5.718;2023-07-29T06:22:34;2.50;;;2.20;;
68438;SDS011;55421;51.600;5.718;2023-07-29T06:25:00;4.40;;;2.50;;
68438;SDS011;55421;51.600;5.718;2023-07-29T06:27:27;3.10;;;2.50;;
68438;SDS011;55421;51.600;5.718;2023-07-29T06:29:53;3.40;;;2.10;;
68438;SDS011;55421;51.600;5.718;2023-07-29T06:32:20;2.40;;;2.10;;
68438;SDS011;55421;51.600;5.718;2023-07-29T06:34:46;4.20;;;2.70;;
68438;SDS011;55421;51.600;5.718;2023-07-29T06:37:12;3.60;;;2.50;;
68438;SDS011;55421;51.600;5.718;2023-07-29T06:39:39;2.40;;;2.20;;
68438;SDS011;55421;51.600;5.718;2023-07-29T06:42:05;3.10;;;2.70;;
68438;SDS011;55421;51.600;5.718;2023-07-29T06:44:32;3.00;;;2.60;;
68438;SDS011;55421;51.600;5.718;2023-07-29T06:46:59;2.60;;;2.30;;
68438;SDS011;55421;51.600;5.718;2023-07-29T06:49:25;3.50;;;2.30;;
68438;SDS011;55421;51.600;5.718;2023-07-29T06:51:52;4.40;;;2.70;;
68438;SDS011;55421;51.600;5.718;2023-07-29T06:54:18;5.80;;;2.50;;
68438;SDS011;55421;51.600;5.718;2023-07-29T06:56:45;3.10;;;2.90;;
68438;SDS011;55421;51.600;5.718;2023-07-29T06:59:11;3.90;;;3.10;;
68438;SDS011;55421;51.600;5.718;2023-07-29T07:01:38;3.50;;;3.00;;
68438;SDS011;55421;51.600;5.718;2023-07-29T07:04:04;3.40;;;3.10;;
68438;SDS011;55421;51.600;5.718;2023-07-29T07:06:30;4.80;;;3.10;;
68438;SDS011;55421;51.600;5.718;2023-07-29T07:08:57;3.80;;;2.80;;
68438;SDS011;55421;51.600;5.718;2023-07-29T07:11:23;3.70;;;3.10;;
68438;SDS011;55421;51.600;5.718;2023-07-29T07:13:50;4.80;;;3.00;;
68438;SDS011;55421;51.600;5.718;2023-07-29T07:16:16;4.20;;;3.40;;
68438;SDS011;55421;51.600;5.718;2023-07-29T07:18:43;4.60;;;2.90;;
68438;SDS011;55421;51.600;5.718;2023-07-29T07:21:10;3.90;;;2.90;;
68438;SDS011;55421;51.600;5.718;2023-07-29T07:23:36;3.00;;;2.70;;
68438;SDS011;55421;51.600;5.718;2023-07-29T07:26:03;3.40;;;2.50;;
68438;SDS011;55421;51.600;5.718;2023-07-29T07:28:29;2.40;;;2.20;;
68438;SDS011;55421;51.600;5.718;2023-07-29T07:30:56;3.60;;;2.20;;
68438;SDS011;55421;51.600;5.718;2023-07-29T07:33:22;3.40;;;2.20;;
68438;SDS011;55421;51.600;5.718;2023-07-29T07:35:49;3.30;;;2.30;;
68438;SDS011;55421;51.600;5.718;2023-07-29T07:38:15;2.60;;;2.40;;
68438;SDS011;55421;51.600;5.718;2023-07-29T07:40:43;4.00;;;1.90;;
68438;SDS011;55421;51.600;5.718;2023-07-29T07:43:19;3.00;;;2.20;;
68438;SDS011;55421;51.600;5.718;2023-07-29T07:45:45;2.50;;;2.20;;
68438;SDS011;55421;51.600;5.718;2023-07-29T07:48:12;3.10;;;1.90;;
68438;SDS011;55421;51.600;5.718;2023-07-29T07:50:39;2.70;;;1.90;;
68438;SDS011;55421;51.600;5.718;2023-07-29T07:53:06;3.90;;;1.90;;
68438;SDS011;55421;51.600;5.718;2023-07-29T07:55:32;2.80;;;1.80;;
68438;SDS011;55421;51.600;5.718;2023-07-29T07:57:58;2.20;;;1.70;;
68438;SDS011;55421;51.600;5.718;2023-07-29T08:00:25;3.80;;;1.90;;
68438;SDS011;55421;51.600;5.718;2023-07-29T08:02:51;2.80;;;2.00;;
68438;SDS011;55421;51.600;5.718;2023-07-29T08:05:18;3.40;;;1.90;;
68438;SDS011;55421;51.600;5.718;2023-07-29T08:07:45;4.00;;;2.10;;
68438;SDS011;55421;51.600;5.718;2023-07-29T08:10:11;2.60;;;2.20;;
68438;SDS011;55421;51.600;5.718;2023-07-29T08:12:38;4.70;;;2.30;;
68438;SDS011;55421;51.600;5.718;2023-07-29T08:15:05;2.60;;;2.00;;
68438;SDS011;55421;51.600;5.718;2023-07-29T08:17:32;2.20;;;2.10;;
68438;SDS011;55421;51.600;5.718;2023-07-29T08:19:58;2.60;;;2.10;;
68438;SDS011;55421;51.600;5.718;2023-07-29T08:22:24;2.10;;;2.00;;
68438;SDS011;55421;51.600;5.718;2023-07-29T08:24:51;2.80;;;1.90;;
68438;SDS011;55421;51.600;5.718;2023-07-29T08:27:17;2.30;;;2.00;;
68438;SDS011;55421;51.600;5.718;2023-07-29T08:29:44;3.30;;;1.90;;
68438;SDS011;55421;51.600;5.718;2023-07-29T08:32:10;2.10;;;1.90;;
68438;SDS011;55421;51.600;5.718;2023-07-29T08:34:36;1.70;;;1.60;;
68438;SDS011;55421;51.600;5.718;2023-07-29T08:37:03;2.00;;;1.80;;
68438;SDS011;55421;51.600;5.718;2023-07-29T08:39:29;1.80;;;1.70;;
68438;SDS011;55421;51.600;5.718;2023-07-29T08:42:03;2.30;;;1.40;;
68438;SDS011;55421;51.600;5.718;2023-07-29T08:44:36;3.70;;;1.70;;
68438;SDS011;55421;51.600;5.718;2023-07-29T08:47:09;1.60;;;1.50;;
68438;SDS011;55421;51.600;5.718;2023-07-29T08:49:36;2.50;;;1.70;;
68438;SDS011;55421;51.600;5.718;2023-07-29T08:52:04;1.90;;;1.70;;
68438;SDS011;55421;51.600;5.718;2023-07-29T08:54:32;2.00;;;1.70;;
68438;SDS011;55421;51.600;5.718;2023-07-29T08:56:59;2.30;;;1.70;;
68438;SDS011;55421;51.600;5.718;2023-07-29T08:59:28;2.10;;;1.60;;
68438;SDS011;55421;51.600;5.718;2023-07-29T09:01:56;2.20;;;1.40;;
68438;SDS011;55421;51.600;5.718;2023-07-29T09:04:23;2.40;;;1.30;;
68438;SDS011;55421;51.600;5.718;2023-07-29T09:06:51;2.70;;;1.70;;
68438;SDS011;55421;51.600;5.718;2023-07-29T09:09:21;2.70;;;1.50;;
68438;SDS011;55421;51.600;5.718;2023-07-29T09:11:48;1.90;;;1.40;;
68438;SDS011;55421;51.600;5.718;2023-07-29T09:14:14;1.40;;;1.20;;
68438;SDS011;55421;51.600;5.718;2023-07-29T09:16:41;1.40;;;1.10;;
68438;SDS011;55421;51.600;5.718;2023-07-29T09:19:08;1.50;;;1.30;;
68438;SDS011;55421;51.600;5.718;2023-07-29T09:21:38;1.30;;;1.20;;
68438;SDS011;55421;51.600;5.718;2023-07-29T09:24:07;1.60;;;1.20;;
68438;SDS011;55421;51.600;5.718;2023-07-29T09:26:34;1.20;;;1.10;;
68438;SDS011;55421;51.600;5.718;2023-07-29T09:29:01;1.40;;;1.20;;
68438;SDS011;55421;51.600;5.718;2023-07-29T09:31:28;1.50;;;1.20;;
68438;SDS011;55421;51.600;5.718;2023-07-29T09:33:57;2.90;;;1.10;;
68438;SDS011;55421;51.600;5.718;2023-07-29T09:36:30;2.10;;;1.00;;
68438;SDS011;55421;51.600;5.718;2023-07-29T09:38:57;1.40;;;1.10;;
68438;SDS011;55421;51.600;5.718;2023-07-29T09:41:26;1.00;;;1.00;;
68438;SDS011;55421;51.600;5.718;2023-07-29T09:44:01;2.20;;;1.00;;
68438;SDS011;55421;51.600;5.718;2023-07-29T09:46:34;4.10;;;1.10;;
68438;SDS011;55421;51.600;5.718;2023-07-29T09:49:03;1.30;;;1.10;;
68438;SDS011;55421;51.600;5.718;2023-07-29T09:51:31;1.40;;;1.30;;
68438;SDS011;55421;51.600;5.718;2023-07-29T09:54:02;1.20;;;1.10;;
68438;SDS011;55421;51.600;5.718;2023-07-29T09:56:29;1.00;;;1.00;;
68438;SDS011;55421;51.600;5.718;2023-07-29T09:58:56;1.10;;;1.00;;
68438;SDS011;55421;51.600;5.718;2023-07-29T10:01:24;1.40;;;1.00;;
68438;SDS011;55421;51.600;5.718;2023-07-29T10:03:51;1.30;;;1.00;;
68438;SDS011;55421;51.600;5.718;2023-07-29T10:06:18;1.10;;;1.00;;
68438;SDS011;55421;51.600;5.718;2023-07-29T10:08:45;1.40;;;1.10;;
68438;SDS011;55421;51.600;5.718;2023-07-29T10:11:13;2.40;;;1.20;;
68438;SDS011;55421;51.600;5.718;2023-07-29T10:13:40;2.20;;;1.20;;
68438;SDS011;55421;51.600;5.718;2023-07-29T10:16:07;1.00;;;1.00;;
68438;SDS011;55421;51.600;5.718;2023-07-29T10:18:33;1.30;;;1.20;;
68438;SDS011;55421;51.600;5.718;2023-07-29T10:21:01;1.10;;;1.10;;
68438;SDS011;55421;51.600;5.718;2023-07-29T10:23:36;1.70;;;1.20;;
68438;SDS011;55421;51.600;5.718;2023-07-29T10:26:06;1.10;;;1.00;;
68438;SDS011;55421;51.600;5.718;2023-07-29T10:28:39;1.70;;;1.10;;
68438;SDS011;55421;51.600;5.718;2023-07-29T10:31:11;2.20;;;1.30;;
68438;SDS011;55421;51.600;5.718;2023-07-29T10:33:39;2.50;;;1.40;;
68438;SDS011;55421;51.600;5.718;2023-07-29T10:36:06;1.50;;;1.10;;
68438;SDS011;55421;51.600;5.718;2023-07-29T10:38:34;1.30;;;1.00;;
68438;SDS011;55421;51.600;5.718;2023-07-29T10:41:00;2.80;;;1.30;;
68438;SDS011;55421;51.600;5.718;2023-07-29T10:43:37;3.60;;;1.30;;
68438;SDS011;55421;51.600;5.718;2023-07-29T10:46:22;1.20;;;1.10;;
68438;SDS011;55421;51.600;5.718;2023-07-29T10:48:54;2.00;;;1.40;;
68438;SDS011;55421;51.600;5.718;2023-07-29T10:54:17;1.50;;;1.20;;
68438;SDS011;55421;51.600;5.718;2023-07-29T10:56:47;2.00;;;1.20;;
68438;SDS011;55421;51.600;5.718;2023-07-29T11:02:00;2.00;;;1.40;;
68438;SDS011;55421;51.600;5.718;2023-07-29T11:04:28;2.40;;;1.40;;
68438;SDS011;55421;51.600;5.718;2023-07-29T11:12:38;1.80;;;1.30;;
68438;SDS011;55421;51.600;5.718;2023-07-29T11:17:39;1.40;;;1.20;;
68438;SDS011;55421;51.600;5.718;2023-07-29T11:20:11;1.50;;;1.40;;
68438;SDS011;55421;51.600;5.718;2023-07-29T11:22:39;1.10;;;1.10;;
68438;SDS011;55421;51.600;5.718;2023-07-29T11:25:07;1.50;;;1.20;;
68438;SDS011;55421;51.600;5.718;2023-07-29T11:27:36;1.50;;;1.30;;
68438;SDS011;55421;51.600;5.718;2023-07-29T11:30:05;1.30;;;1.20;;
68438;SDS011;55421;51.600;5.718;2023-07-29T11:32:35;1.50;;;1.40;;
68438;SDS011;55421;51.600;5.718;2023-07-29T11:37:34;1.10;;;1.10;;
68438;SDS011;55421;51.600;5.718;2023-07-29T11:40:02;1.40;;;1.30;;
68438;SDS011;55421;51.600;5.718;2023-07-29T11:42:32;2.30;;;1.50;;
68438;SDS011;55421;51.600;5.718;2023-07-29T11:45:01;1.80;;;1.50;;
68438;SDS011;55421;51.600;5.718;2023-07-29T11:47:29;1.40;;;1.30;;
68438;SDS011;55421;51.600;5.718;2023-07-29T11:49:59;1.50;;;1.40;;
68438;SDS011;55421;51.600;5.718;2023-07-29T11:54:55;2.30;;;1.20;;
68438;SDS011;55421;51.600;5.718;2023-07-29T11:57:21;1.40;;;1.30;;
68438;SDS011;55421;51.600;5.718;2023-07-29T11:59:49;1.90;;;1.30;;
68438;SDS011;55421;51.600;5.718;2023-07-29T12:02:17;1.60;;;1.50;;
68438;SDS011;55421;51.600;5.718;2023-07-29T12:04:47;4.30;;;1.80;;
68438;SDS011;55421;51.600;5.718;2023-07-29T12:07:16;1.60;;;1.50;;
68438;SDS011;55421;51.600;5.718;2023-07-29T12:09:43;1.40;;;1.30;;
68438;SDS011;55421;51.600;5.718;2023-07-29T12:12:11;2.00;;;1.40;;
68438;SDS011;55421;51.600;5.718;2023-07-29T12:14:38;1.40;;;1.30;;
68438;SDS011;55421;51.600;5.718;2023-07-29T12:17:06;1.40;;;1.30;;
68438;SDS011;55421;51.600;5.718;2023-07-29T12:19:34;1.50;;;1.40;;
68438;SDS011;55421;51.600;5.718;2023-07-29T12:22:03;1.40;;;1.30;;
68438;SDS011;55421;51.600;5.718;2023-07-29T12:24:31;1.40;;;1.30;;
68438;SDS011;55421;51.600;5.718;2023-07-29T12:26:59;1.40;;;1.30;;
68438;SDS011;55421;51.600;5.718;2023-07-29T12:29:26;1.50;;;1.40;;
68438;SDS011;55421;51.600;5.718;2023-07-29T12:32:02;2.10;;;1.50;;
68438;SDS011;55421;51.600;5.718;2023-07-29T12:34:31;2.80;;;1.20;;
68438;SDS011;55421;51.600;5.718;2023-07-29T12:36:58;2.10;;;1.90;;
68438;SDS011;55421;51.600;5.718;2023-07-29T12:39:30;2.40;;;2.20;;
68438;SDS011;55421;51.600;5.718;2023-07-29T12:42:00;5.80;;;1.50;;
68438;SDS011;55421;51.600;5.718;2023-07-29T12:44:31;4.40;;;1.10;;
68438;SDS011;55421;51.600;5.718;2023-07-29T12:47:03;5.20;;;0.90;;
68438;SDS011;55421;51.600;5.718;2023-07-29T12:49:32;1.20;;;0.80;;
68438;SDS011;55421;51.600;5.718;2023-07-29T12:51:59;0.70;;;0.60;;
68438;SDS011;55421;51.600;5.718;2023-07-29T12:54:26;0.90;;;0.90;;
68438;SDS011;55421;51.600;5.718;2023-07-29T12:56:53;1.80;;;1.00;;
68438;SDS011;55421;51.600;5.718;2023-07-29T12:59:19;1.40;;;1.20;;
68438;SDS011;55421;51.600;5.718;2023-07-29T13:01:46;2.00;;;1.30;;
68438;SDS011;55421;51.600;5.718;2023-07-29T13:04:12;1.60;;;1.40;;
68438;SDS011;55421;51.600;5.718;2023-07-29T13:06:39;1.70;;;1.60;;
68438;SDS011;55421;51.600;5.718;2023-07-29T13:09:05;1.80;;;1.60;;
68438;SDS011;55421;51.600;5.718;2023-07-29T13:11:32;1.70;;;1.60;;
68438;SDS011;55421;51.600;5.718;2023-07-29T13:13:59;2.20;;;2.00;;
68438;SDS011;55421;51.600;5.718;2023-07-29T13:16:27;2.80;;;1.80;;
68438;SDS011;55421;51.600;5.718;2023-07-29T13:18:55;2.30;;;1.60;;
68438;SDS011;55421;51.600;5.718;2023-07-29T13:21:22;1.70;;;1.60;;
68438;SDS011;55421;51.600;5.718;2023-07-29T13:23:49;2.00;;;1.60;;
68438;SDS011;55421;51.600;5.718;2023-07-29T13:26:15;2.60;;;1.60;;
68438;SDS011;55421;51.600;5.718;2023-07-29T13:28:42;1.70;;;1.40;;
68438;SDS011;55421;51.600;5.718;2023-07-29T13:31:08;1.60;;;1.50;;
68438;SDS011;55421;51.600;5.718;2023-07-29T13:33:35;1.30;;;1.20;;
68438;SDS011;55421;51.600;5.718;2023-07-29T13:36:01;2.40;;;1.30;;
68438;SDS011;55421;51.600;5.718;2023-07-29T13:38:30;3.20;;;1.30;;
68438;SDS011;55421;51.600;5.718;2023-07-29T13:40:57;2.80;;;1.00;;
68438;SDS011;55421;51.600;5.718;2023-07-29T13:43:24;1.30;;;1.20;;
68438;SDS011;55421;51.600;5.718;2023-07-29T13:45:50;1.10;;;1.00;;
68438;SDS011;55421;51.600;5.718;2023-07-29T13:48:18;1.00;;;1.00;;
68438;SDS011;55421;51.600;5.718;2023-07-29T13:50:45;1.20;;;1.10;;
68438;SDS011;55421;51.600;5.718;2023-07-29T13:53:11;1.30;;;1.20;;
68438;SDS011;55421;51.600;5.718;2023-07-29T13:55:38;1.90;;;1.10;;
68438;SDS011;55421;51.600;5.718;2023-07-29T13:58:04;1.10;;;1.10;;
68438;SDS011;55421;51.600;5.718;2023-07-29T14:00:30;1.40;;;1.30;;
68438;SDS011;55421;51.600;5.718;2023-07-29T14:02:57;1.40;;;1.20;;
68438;SDS011;55421;51.600;5.718;2023-07-29T14:05:24;1.40;;;1.20;;
68438;SDS011;55421;51.600;5.718;2023-07-29T14:07:50;1.50;;;1.40;;
68438;SDS011;55421;51.600;5.718;2023-07-29T14:10:16;1.70;;;1.30;;
68438;SDS011;55421;51.600;5.718;2023-07-29T14:12:43;2.70;;;1.40;;
68438;SDS011;55421;51.600;5.718;2023-07-29T14:15:09;1.40;;;1.30;;
68438;SDS011;55421;51.600;5.718;2023-07-29T14:17:36;1.60;;;1.50;;
68438;SDS011;55421;51.600;5.718;2023-07-29T14:20:02;1.70;;;1.60;;
68438;SDS011;55421;51.600;5.718;2023-07-29T14:22:31;2.30;;;1.70;;
68438;SDS011;55421;51.600;5.718;2023-07-29T14:24:57;2.00;;;1.80;;
68438;SDS011;55421;51.600;5.718;2023-07-29T14:27:23;2.20;;;1.60;;
68438;SDS011;55421;51.600;5.718;2023-07-29T14:29:50;3.10;;;1.80;;
68438;SDS011;55421;51.600;5.718;2023-07-29T14:32:16;1.70;;;1.60;;
68438;SDS011;55421;51.600;5.718;2023-07-29T14:34:43;1.80;;;1.60;;
68438;SDS011;55421;51.600;5.718;2023-07-29T14:37:09;1.80;;;1.60;;
68438;SDS011;55421;51.600;5.718;2023-07-29T14:39:36;3.60;;;1.60;;
68438;SDS011;55421;51.600;5.718;2023-07-29T14:42:02;2.00;;;1.60;;
68438;SDS011;55421;51.600;5.718;2023-07-29T14:44:29;1.90;;;1.80;;
68438;SDS011;55421;51.600;5.718;2023-07-29T14:46:56;2.00;;;1.90;;
68438;SDS011;55421;51.600;5.718;2023-07-29T14:49:22;1.70;;;1.60;;
68438;SDS011;55421;51.600;5.718;2023-07-29T14:51:49;2.90;;;1.60;;
68438;SDS011;55421;51.600;5.718;2023-07-29T14:54:15;1.90;;;1.70;;
68438;SDS011;55421;51.600;5.718;2023-07-29T14:56:42;2.50;;;1.60;;
68438;SDS011;55421;51.600;5.718;2023-07-29T14:59:08;2.40;;;1.80;;
68438;SDS011;55421;51.600;5.718;2023-07-29T15:01:35;1.60;;;1.50;;
68438;SDS011;55421;51.600;5.718;2023-07-29T15:04:01;1.60;;;1.50;;
68438;SDS011;55421;51.600;5.718;2023-07-29T15:06:28;2.00;;;1.50;;
68438;SDS011;55421;51.600;5.718;2023-07-29T15:08:54;1.90;;;1.60;;
68438;SDS011;55421;51.600;5.718;2023-07-29T15:11:21;1.90;;;1.80;;
68438;SDS011;55421;51.600;5.718;2023-07-29T15:13:47;2.10;;;1.50;;